^^
Your Local Weather - Clay, NY Station Historical Data
Daily Summary for March 6, 2018 Units:  Both    English   Metric
« Previous Day
Next Day »
Daily Weekly Monthly Yearly Custom
  High: Low: Average:
Temperature: 40.8 °F /  4.9 °C 27.9 °F /  -2.3 °C 34.1 °F /  1.2 °C
Dew Point: 31.5 °F /  -0.3 °C 22.7 °F /  -5.2 °C 25.2 °F /  -3.8 °C
Humidity: 91% 54% 71%
Wind Speed: 6.0mph /  9.7km/h - 2.2mph /  3.5km/h
Wind Gust: 13.0mph /  20.9km/h - -
Wind- - ESE
Pressure: 30.10 in /  1019.2 hPa 29.80 in /  1009 hPa -
Precipitation: 0.09 in /  2.29 mm    
Historical Graphs
 
 
Tabular Data for March 6, 2018
Time Temperature Dew Point Pressure Wind Wind Speed Wind Gust Humidity Rainfall Rate (Hourly) solar
00:02 29.4 °F /  -1.4 °C 22.8 °F /  -5.1 °C 30.10in /  1019.2hPa Calm     76% 0.00in /  0mm 0 W/m2
00:08 29.4 °F /  -1.4 °C 22.8 °F /  -5.1 °C 30.10in /  1019.2hPa Calm     76% 0.00in /  0mm 0 W/m2
00:14 29.3 °F /  -1.5 °C 22.7 °F /  -5.2 °C 30.10in /  1019.2hPa Calm     76% 0.00in /  0mm 0 W/m2
00:20 29.3 °F /  -1.5 °C 22.7 °F /  -5.2 °C 30.10in /  1019.2hPa Calm     76% 0.00in /  0mm 0 W/m2
00:26 29.3 °F /  -1.5 °C 22.7 °F /  -5.2 °C 30.10in /  1019.2hPa Calm     76% 0.00in /  0mm 0 W/m2
00:32 29.3 °F /  -1.5 °C 22.7 °F /  -5.2 °C 30.10in /  1019.2hPa Calm     76% 0.00in /  0mm 0 W/m2
00:38 29.3 °F /  -1.5 °C 23.0 °F /  -5 °C 30.10in /  1019.2hPa Calm     77% 0.00in /  0mm 0 W/m2
00:44 29.2 °F /  -1.6 °C 22.9 °F /  -5.1 °C 30.10in /  1019.2hPa Calm     77% 0.00in /  0mm 0 W/m2
00:50 29.2 °F /  -1.6 °C 22.9 °F /  -5.1 °C 30.10in /  1019.2hPa Calm     77% 0.00in /  0mm 0 W/m2
00:56 29.2 °F /  -1.6 °C 22.9 °F /  -5.1 °C 30.10in /  1019.2hPa Calm     77% 0.00in /  0mm 0 W/m2
01:02 29.1 °F /  -1.6 °C 22.8 °F /  -5.1 °C 30.09in /  1018.8hPa Calm     77% 0.00in /  0mm 0 W/m2
01:08 29.1 °F /  -1.6 °C 22.8 °F /  -5.1 °C 30.09in /  1018.8hPa Calm     77% 0.00in /  0mm 0 W/m2
01:14 29.0 °F /  -1.7 °C 23.0 °F /  -5 °C 30.09in /  1018.8hPa Calm     78% 0.00in /  0mm 0 W/m2
01:20 29.0 °F /  -1.7 °C 23.0 °F /  -5 °C 30.09in /  1018.8hPa Calm     78% 0.00in /  0mm 0 W/m2
01:26 28.9 °F /  -1.7 °C 22.9 °F /  -5.1 °C 30.09in /  1018.8hPa Calm     78% 0.00in /  0mm 0 W/m2
01:32 28.9 °F /  -1.7 °C 23.2 °F /  -4.9 °C 30.09in /  1018.8hPa Calm     79% 0.00in /  0mm 0 W/m2
01:40 28.7 °F /  -1.8 °C 23.3 °F /  -4.8 °C 30.08in /  1018.5hPa Calm     80% 0.00in /  0mm 0 W/m2
01:46 28.7 °F /  -1.8 °C 23.3 °F /  -4.8 °C 30.08in /  1018.5hPa Calm     80% 0.00in /  0mm 0 W/m2
01:52 28.7 °F /  -1.8 °C 23.3 °F /  -4.8 °C 30.08in /  1018.5hPa Calm     80% 0.00in /  0mm 0 W/m2
02:00 28.7 °F /  -1.8 °C 23.3 °F /  -4.8 °C 30.08in /  1018.5hPa Calm     80% 0.00in /  0mm 0 W/m2
02:06 28.7 °F /  -1.8 °C 23.3 °F /  -4.8 °C 30.07in /  1018.2hPa Calm     80% 0.00in /  0mm 0 W/m2
02:12 28.7 °F /  -1.8 °C 23.3 °F /  -4.8 °C 30.07in /  1018.2hPa Calm     80% 0.00in /  0mm 0 W/m2
02:18 28.8 °F /  -1.8 °C 23.4 °F /  -4.8 °C 30.07in /  1018.2hPa Calm     80% 0.00in /  0mm 0 W/m2
02:24 28.9 °F /  -1.7 °C 23.5 °F /  -4.7 °C 30.07in /  1018.2hPa North 1.0mph /  1.6km/h 1.0mph /  1.6km/h 80% 0.00in /  0mm 0 W/m2
02:30 28.9 °F /  -1.7 °C 23.5 °F /  -4.7 °C 30.07in /  1018.2hPa Calm     80% 0.00in /  0mm 0 W/m2
02:36 28.8 °F /  -1.8 °C 23.7 °F /  -4.6 °C 30.07in /  1018.2hPa Calm     81% 0.00in /  0mm 0 W/m2
02:42 28.7 °F /  -1.8 °C 23.6 °F /  -4.7 °C 30.07in /  1018.2hPa Calm     81% 0.00in /  0mm 0 W/m2
02:48 28.7 °F /  -1.8 °C 23.6 °F /  -4.7 °C 30.07in /  1018.2hPa Calm     81% 0.00in /  0mm 0 W/m2
02:54 28.6 °F /  -1.9 °C 23.5 °F /  -4.7 °C 30.06in /  1017.8hPa Calm     81% 0.00in /  0mm 0 W/m2
03:00 28.6 °F /  -1.9 °C 23.5 °F /  -4.7 °C 30.07in /  1018.2hPa Calm     81% 0.00in /  0mm 0 W/m2
03:06 28.7 °F /  -1.8 °C 23.6 °F /  -4.7 °C 30.07in /  1018.2hPa Calm     81% 0.00in /  0mm 0 W/m2
03:12 28.7 °F /  -1.8 °C 23.6 °F /  -4.7 °C 30.06in /  1017.8hPa Calm     81% 0.00in /  0mm 0 W/m2
03:18 28.7 °F /  -1.8 °C 23.6 °F /  -4.7 °C 30.06in /  1017.8hPa Calm     81% 0.00in /  0mm 0 W/m2
03:24 28.6 °F /  -1.9 °C 23.5 °F /  -4.7 °C 30.06in /  1017.8hPa Calm     81% 0.00in /  0mm 0 W/m2
03:30 28.6 °F /  -1.9 °C 23.8 °F /  -4.6 °C 30.06in /  1017.8hPa Calm     82% 0.00in /  0mm 0 W/m2
03:36 28.6 °F /  -1.9 °C 23.5 °F /  -4.7 °C 30.07in /  1018.2hPa Calm   1.0mph /  1.6km/h 81% 0.00in /  0mm 0 W/m2
03:42 28.7 °F /  -1.8 °C 23.9 °F /  -4.5 °C 30.06in /  1017.8hPa Calm     82% 0.00in /  0mm 0 W/m2
03:48 28.7 °F /  -1.8 °C 23.6 °F /  -4.7 °C 30.06in /  1017.8hPa Calm     81% 0.00in /  0mm 0 W/m2
03:54 28.8 °F /  -1.8 °C 23.7 °F /  -4.6 °C 30.06in /  1017.8hPa Calm     81% 0.00in /  0mm 0 W/m2
04:00 28.8 °F /  -1.8 °C 23.7 °F /  -4.6 °C 30.06in /  1017.8hPa Calm     81% 0.00in /  0mm 0 W/m2
04:06 28.8 °F /  -1.8 °C 23.7 °F /  -4.6 °C 30.06in /  1017.8hPa Calm   3.0mph /  4.8km/h 81% 0.00in /  0mm 0 W/m2
04:12 28.7 °F /  -1.8 °C 23.6 °F /  -4.7 °C 30.06in /  1017.8hPa NW 1.0mph /  1.6km/h 1.0mph /  1.6km/h 81% 0.00in /  0mm 0 W/m2
04:18 28.7 °F /  -1.8 °C 23.9 °F /  -4.5 °C 30.05in /  1017.5hPa Calm   1.0mph /  1.6km/h 82% 0.00in /  0mm 0 W/m2
04:24 28.6 °F /  -1.9 °C 23.8 °F /  -4.6 °C 30.05in /  1017.5hPa Calm     82% 0.00in /  0mm 0 W/m2
04:30 28.5 °F /  -1.9 °C 23.7 °F /  -4.6 °C 30.06in /  1017.8hPa Calm     82% 0.00in /  0mm 0 W/m2
04:36 28.6 °F /  -1.9 °C 23.8 °F /  -4.6 °C 30.06in /  1017.8hPa Calm   1.0mph /  1.6km/h 82% 0.00in /  0mm 0 W/m2
04:42 28.5 °F /  -1.9 °C 23.7 °F /  -4.6 °C 30.06in /  1017.8hPa Calm     82% 0.00in /  0mm 0 W/m2
04:48 28.5 °F /  -1.9 °C 23.7 °F /  -4.6 °C 30.06in /  1017.8hPa Calm     82% 0.00in /  0mm 0 W/m2
04:54 28.5 °F /  -1.9 °C 23.7 °F /  -4.6 °C 30.05in /  1017.5hPa Calm     82% 0.00in /  0mm 0 W/m2
05:00 28.5 °F /  -1.9 °C 23.7 °F /  -4.6 °C 30.05in /  1017.5hPa Calm     82% 0.00in /  0mm 0 W/m2
05:06 28.5 °F /  -1.9 °C 23.7 °F /  -4.6 °C 30.05in /  1017.5hPa Calm     82% 0.00in /  0mm 0 W/m2
05:12 28.4 °F /  -2 °C 23.9 °F /  -4.5 °C 30.05in /  1017.5hPa Calm     83% 0.00in /  0mm 0 W/m2
05:18 28.4 °F /  -2 °C 23.9 °F /  -4.5 °C 30.04in /  1017.2hPa Calm     83% 0.00in /  0mm 0 W/m2
05:24 28.4 °F /  -2 °C 23.9 °F /  -4.5 °C 30.04in /  1017.2hPa Calm     83% 0.00in /  0mm 0 W/m2
05:30 28.3 °F /  -2.1 °C 23.8 °F /  -4.6 °C 30.04in /  1017.2hPa Calm     83% 0.00in /  0mm 0 W/m2
05:36 28.2 °F /  -2.1 °C 23.7 °F /  -4.6 °C 30.05in /  1017.5hPa Calm   1.0mph /  1.6km/h 83% 0.00in /  0mm 0 W/m2
05:42 28.2 °F /  -2.1 °C 24.0 °F /  -4.4 °C 30.05in /  1017.5hPa NW 1.0mph /  1.6km/h 1.0mph /  1.6km/h 84% 0.00in /  0mm 0 W/m2
05:48 28.2 °F /  -2.1 °C 24.0 °F /  -4.4 °C 30.04in /  1017.2hPa Calm   1.0mph /  1.6km/h 84% 0.00in /  0mm 0 W/m2
05:54 28.2 °F /  -2.1 °C 24.0 °F /  -4.4 °C 30.04in /  1017.2hPa Calm     84% 0.00in /  0mm 0 W/m2
06:00 28.2 °F /  -2.1 °C 24.0 °F /  -4.4 °C 30.04in /  1017.2hPa Calm     84% 0.00in /  0mm 0 W/m2
06:06 28.1 °F /  -2.2 °C 23.9 °F /  -4.5 °C 30.05in /  1017.5hPa Calm     84% 0.00in /  0mm 0 W/m2
06:12 28.1 °F /  -2.2 °C 23.9 °F /  -4.5 °C 30.04in /  1017.2hPa Calm     84% 0.00in /  0mm 0 W/m2
06:18 28.0 °F /  -2.2 °C 23.8 °F /  -4.6 °C 30.04in /  1017.2hPa Calm   1.0mph /  1.6km/h 84% 0.00in /  0mm 0 W/m2
06:24 28.0 °F /  -2.2 °C 23.8 °F /  -4.6 °C 30.04in /  1017.2hPa Calm     84% 0.00in /  0mm 0 W/m2
06:30 28.0 °F /  -2.2 °C 24.1 °F /  -4.4 °C 30.04in /  1017.2hPa Calm     85% 0.00in /  0mm 0 W/m2
06:36 28.0 °F /  -2.2 °C 24.1 °F /  -4.4 °C 30.04in /  1017.2hPa Calm     85% 0.00in /  0mm 0 W/m2
06:42 27.9 °F /  -2.3 °C 24.0 °F /  -4.4 °C 30.04in /  1017.2hPa Calm     85% 0.00in /  0mm 7 W/m2
06:48 27.9 °F /  -2.3 °C 24.0 °F /  -4.4 °C 30.04in /  1017.2hPa Calm     85% 0.00in /  0mm 11 W/m2
06:54 28.0 °F /  -2.2 °C 24.1 °F /  -4.4 °C 30.04in /  1017.2hPa Calm   1.0mph /  1.6km/h 85% 0.00in /  0mm 14 W/m2
07:00 28.1 °F /  -2.2 °C 24.2 °F /  -4.3 °C 30.03in /  1016.8hPa Calm     85% 0.00in /  0mm 19 W/m2
07:06 28.0 °F /  -2.2 °C 24.1 °F /  -4.4 °C 30.03in /  1016.8hPa Calm     85% 0.00in /  0mm 25 W/m2
07:12 28.2 °F /  -2.1 °C 24.3 °F /  -4.3 °C 30.03in /  1016.8hPa Calm     85% 0.00in /  0mm 33 W/m2
07:18 28.3 °F /  -2.1 °C 24.4 °F /  -4.2 °C 30.03in /  1016.8hPa Calm     85% 0.00in /  0mm 40 W/m2
07:24 28.5 °F /  -1.9 °C 24.6 °F /  -4.1 °C 30.03in /  1016.8hPa Calm     85% 0.00in /  0mm 46 W/m2
07:30 28.6 °F /  -1.9 °C 24.4 °F /  -4.2 °C 30.03in /  1016.8hPa Calm     84% 0.00in /  0mm 53 W/m2
07:36 28.8 °F /  -1.8 °C 24.6 °F /  -4.1 °C 30.03in /  1016.8hPa Calm   1.0mph /  1.6km/h 84% 0.00in /  0mm 62 W/m2
07:42 29.1 °F /  -1.6 °C 24.9 °F /  -3.9 °C 30.03in /  1016.8hPa Calm   1.0mph /  1.6km/h 84% 0.00in /  0mm 70 W/m2
07:48 29.2 °F /  -1.6 °C 24.7 °F /  -4.1 °C 30.03in /  1016.8hPa Calm   1.0mph /  1.6km/h 83% 0.00in /  0mm 83 W/m2
07:54 29.4 °F /  -1.4 °C 24.9 °F /  -3.9 °C 30.03in /  1016.8hPa NW 1.0mph /  1.6km/h 2.0mph /  3.2km/h 83% 0.00in /  0mm 88 W/m2
08:00 29.5 °F /  -1.4 °C 24.7 °F /  -4.1 °C 30.03in /  1016.8hPa Calm   1.0mph /  1.6km/h 82% 0.00in /  0mm 97 W/m2
08:06 29.6 °F /  -1.3 °C 24.5 °F /  -4.2 °C 30.03in /  1016.8hPa NNW 1.0mph /  1.6km/h 2.0mph /  3.2km/h 81% 0.00in /  0mm 111 W/m2
08:12 29.9 °F /  -1.2 °C 24.5 °F /  -4.2 °C 30.03in /  1016.8hPa NNE 1.0mph /  1.6km/h 2.0mph /  3.2km/h 80% 0.00in /  0mm 125 W/m2
08:18 30.1 °F /  -1.1 °C 24.7 °F /  -4.1 °C 30.02in /  1016.5hPa ENE 1.0mph /  1.6km/h 3.0mph /  4.8km/h 80% 0.00in /  0mm 149 W/m2
08:24 30.2 °F /  -1 °C 24.5 °F /  -4.2 °C 30.02in /  1016.5hPa SE 2.0mph /  3.2km/h 2.0mph /  3.2km/h 79% 0.00in /  0mm 192 W/m2
08:30 30.5 °F /  -0.8 °C 24.8 °F /  -4 °C 30.02in /  1016.5hPa SE 2.0mph /  3.2km/h 4.0mph /  6.4km/h 79% 0.00in /  0mm 341 W/m2
08:36 30.8 °F /  -0.7 °C 24.7 °F /  -4.1 °C 30.02in /  1016.5hPa SE 3.0mph /  4.8km/h 4.0mph /  6.4km/h 78% 0.00in /  0mm 258 W/m2
08:42 31.0 °F /  -0.6 °C 24.6 °F /  -4.1 °C 30.02in /  1016.5hPa ENE 2.0mph /  3.2km/h 2.0mph /  3.2km/h 77% 0.00in /  0mm 225 W/m2
08:48 31.2 °F /  -0.4 °C 24.5 °F /  -4.2 °C 30.02in /  1016.5hPa ENE 2.0mph /  3.2km/h 2.0mph /  3.2km/h 76% 0.00in /  0mm 243 W/m2
08:56 31.7 °F /  -0.2 °C 24.7 °F /  -4.1 °C 30.01in /  1016.1hPa East 2.0mph /  3.2km/h 3.0mph /  4.8km/h 75% 0.00in /  0mm 417 W/m2
09:02 32.4 °F /  0.2 °C 25.4 °F /  -3.7 °C 30.01in /  1016.1hPa SSE 3.0mph /  4.8km/h 3.0mph /  4.8km/h 75% 0.00in /  0mm 438 W/m2
09:08 32.7 °F /  0.4 °C 25.0 °F /  -3.9 °C 30.01in /  1016.1hPa ESE 3.0mph /  4.8km/h 4.0mph /  6.4km/h 73% 0.00in /  0mm 469 W/m2
09:14 32.9 °F /  0.5 °C 25.2 °F /  -3.8 °C 30.01in /  1016.1hPa ESE 3.0mph /  4.8km/h 5.0mph /  8km/h 73% 0.00in /  0mm 512 W/m2
09:20 33.7 °F /  0.9 °C 25.6 °F /  -3.6 °C 30.01in /  1016.1hPa NE 2.0mph /  3.2km/h 3.0mph /  4.8km/h 72% 0.00in /  0mm 559 W/m2
09:26 33.0 °F /  0.6 °C 24.6 °F /  -4.1 °C 30.01in /  1016.1hPa SSE 3.0mph /  4.8km/h 5.0mph /  8km/h 71% 0.00in /  0mm 464 W/m2
09:32 33.3 °F /  0.7 °C 24.6 °F /  -4.1 °C 30.01in /  1016.1hPa ENE 4.0mph /  6.4km/h 8.0mph /  12.9km/h 70% 0.00in /  0mm 527 W/m2
09:38 34.3 °F /  1.3 °C 25.2 °F /  -3.8 °C 30.00in /  1015.8hPa SE 3.0mph /  4.8km/h 8.0mph /  12.9km/h 69% 0.00in /  0mm 501 W/m2
09:44 34.1 °F /  1.2 °C 24.6 °F /  -4.1 °C 30.00in /  1015.8hPa East 3.0mph /  4.8km/h 6.0mph /  9.7km/h 68% 0.00in /  0mm 547 W/m2
09:50 33.7 °F /  0.9 °C 24.3 °F /  -4.3 °C 30.00in /  1015.8hPa NE 4.0mph /  6.4km/h 5.0mph /  8km/h 68% 0.00in /  0mm 504 W/m2
09:56 33.9 °F /  1.1 °C 24.4 °F /  -4.2 °C 29.99in /  1015.5hPa SE 4.0mph /  6.4km/h 6.0mph /  9.7km/h 68% 0.00in /  0mm 438 W/m2
10:02 34.5 °F /  1.4 °C 23.9 °F /  -4.5 °C 29.98in /  1015.1hPa SE 4.0mph /  6.4km/h 6.0mph /  9.7km/h 65% 0.00in /  0mm 710 W/m2
10:08 35.0 °F /  1.7 °C 24.0 °F /  -4.4 °C 29.98in /  1015.1hPa ENE 5.0mph /  8km/h 6.0mph /  9.7km/h 64% 0.00in /  0mm 422 W/m2
10:14 35.0 °F /  1.7 °C 23.7 °F /  -4.6 °C 29.98in /  1015.1hPa SE 5.0mph /  8km/h 6.0mph /  9.7km/h 63% 0.00in /  0mm 721 W/m2
10:20 35.2 °F /  1.8 °C 24.2 °F /  -4.3 °C 29.98in /  1015.1hPa ESE 5.0mph /  8km/h 5.0mph /  8km/h 64% 0.00in /  0mm 635 W/m2
10:26 35.3 °F /  1.8 °C 23.6 °F /  -4.7 °C 29.98in /  1015.1hPa SE 4.0mph /  6.4km/h 5.0mph /  8km/h 62% 0.00in /  0mm 554 W/m2
10:32 35.2 °F /  1.8 °C 23.1 °F /  -4.9 °C 29.98in /  1015.1hPa ESE 4.0mph /  6.4km/h 4.0mph /  6.4km/h 61% 0.00in /  0mm 694 W/m2
10:38 35.0 °F /  1.7 °C 22.9 °F /  -5.1 °C 29.98in /  1015.1hPa SE 5.0mph /  8km/h 6.0mph /  9.7km/h 61% 0.00in /  0mm 392 W/m2
10:44 34.9 °F /  1.6 °C 23.6 °F /  -4.7 °C 29.98in /  1015.1hPa ESE 5.0mph /  8km/h 5.0mph /  8km/h 63% 0.00in /  0mm 582 W/m2
10:50 35.9 °F /  2.2 °C 24.1 °F /  -4.4 °C 29.97in /  1014.8hPa NE 5.0mph /  8km/h 5.0mph /  8km/h 62% 0.00in /  0mm 923 W/m2
10:56 35.8 °F /  2.1 °C 24.0 °F /  -4.4 °C 29.96in /  1014.4hPa ENE 5.0mph /  8km/h 9.0mph /  14.5km/h 62% 0.00in /  0mm 621 W/m2
11:02 36.1 °F /  2.3 °C 24.3 °F /  -4.3 °C 29.96in /  1014.4hPa ESE 3.0mph /  4.8km/h 4.0mph /  6.4km/h 62% 0.00in /  0mm 533 W/m2
11:08 35.6 °F /  2 °C 23.9 °F /  -4.5 °C 29.96in /  1014.4hPa East 4.0mph /  6.4km/h 6.0mph /  9.7km/h 62% 0.00in /  0mm 510 W/m2
11:14 36.6 °F /  2.6 °C 24.4 °F /  -4.2 °C 29.96in /  1014.4hPa SE 4.0mph /  6.4km/h 5.0mph /  8km/h 61% 0.00in /  0mm 993 W/m2
11:20 36.7 °F /  2.6 °C 23.7 °F /  -4.6 °C 29.96in /  1014.4hPa ESE 4.0mph /  6.4km/h 4.0mph /  6.4km/h 59% 0.00in /  0mm 534 W/m2
11:26 36.6 °F /  2.6 °C 23.6 °F /  -4.7 °C 29.95in /  1014.1hPa South 4.0mph /  6.4km/h 6.0mph /  9.7km/h 59% 0.00in /  0mm 851 W/m2
11:32 36.2 °F /  2.3 °C 23.2 °F /  -4.9 °C 29.95in /  1014.1hPa ENE 4.0mph /  6.4km/h 4.0mph /  6.4km/h 59% 0.00in /  0mm 863 W/m2
11:38 36.8 °F /  2.7 °C 24.2 °F /  -4.3 °C 29.95in /  1014.1hPa East 3.0mph /  4.8km/h 5.0mph /  8km/h 60% 0.00in /  0mm 703 W/m2
11:44 37.2 °F /  2.9 °C 23.8 °F /  -4.6 °C 29.94in /  1013.8hPa ESE 5.0mph /  8km/h 5.0mph /  8km/h 58% 0.00in /  0mm 925 W/m2
11:50 36.6 °F /  2.6 °C 23.2 °F /  -4.9 °C 29.94in /  1013.8hPa ENE 4.0mph /  6.4km/h 4.0mph /  6.4km/h 58% 0.00in /  0mm 406 W/m2
11:56 36.7 °F /  2.6 °C 23.7 °F /  -4.6 °C 29.93in /  1013.4hPa ESE 3.0mph /  4.8km/h 7.0mph /  11.3km/h 59% 0.00in /  0mm 388 W/m2
12:02 37.2 °F /  2.9 °C 23.8 °F /  -4.6 °C 29.92in /  1013.1hPa ESE 3.0mph /  4.8km/h 7.0mph /  11.3km/h 58% 0.00in /  0mm 854 W/m2
12:08 37.8 °F /  3.2 °C 24.3 °F /  -4.3 °C 29.92in /  1013.1hPa East 5.0mph /  8km/h 7.0mph /  11.3km/h 58% 0.00in /  0mm 740 W/m2
12:14 37.8 °F /  3.2 °C 23.5 °F /  -4.7 °C 29.91in /  1012.8hPa East 5.0mph /  8km/h 8.0mph /  12.9km/h 56% 0.00in /  0mm 726 W/m2
12:20 38.2 °F /  3.4 °C 23.9 °F /  -4.5 °C 29.91in /  1012.8hPa ESE 5.0mph /  8km/h 5.0mph /  8km/h 56% 0.00in /  0mm 735 W/m2
12:26 38.1 °F /  3.4 °C 23.8 °F /  -4.6 °C 29.90in /  1012.4hPa NE 5.0mph /  8km/h 7.0mph /  11.3km/h 56% 0.00in /  0mm 742 W/m2
12:32 38.5 °F /  3.6 °C 24.1 °F /  -4.4 °C 29.90in /  1012.4hPa East 5.0mph /  8km/h 11.0mph /  17.7km/h 56% 0.00in /  0mm 728 W/m2
12:38 38.8 °F /  3.8 °C 23.6 °F /  -4.7 °C 29.90in /  1012.4hPa ESE 5.0mph /  8km/h 11.0mph /  17.7km/h 54% 0.00in /  0mm 738 W/m2
12:44 38.9 °F /  3.8 °C 24.1 °F /  -4.4 °C 29.89in /  1012.1hPa SE 4.0mph /  6.4km/h 9.0mph /  14.5km/h 55% 0.00in /  0mm 780 W/m2
12:50 38.0 °F /  3.3 °C 24.1 °F /  -4.4 °C 29.89in /  1012.1hPa ENE 4.0mph /  6.4km/h 4.0mph /  6.4km/h 57% 0.00in /  0mm 613 W/m2
12:56 37.7 °F /  3.2 °C 24.2 °F /  -4.3 °C 29.89in /  1012.1hPa NE 5.0mph /  8km/h 6.0mph /  9.7km/h 58% 0.00in /  0mm 515 W/m2
13:03 38.2 °F /  3.4 °C 25.1 °F /  -3.8 °C 29.89in /  1012.1hPa East 3.0mph /  4.8km/h 4.0mph /  6.4km/h 59% 0.00in /  0mm 958 W/m2
13:08 39.1 °F /  3.9 °C 24.3 °F /  -4.3 °C 29.89in /  1012.1hPa ENE 3.0mph /  4.8km/h 4.0mph /  6.4km/h 55% 0.00in /  0mm 851 W/m2
13:14 38.3 °F /  3.5 °C 24.0 °F /  -4.4 °C 29.88in /  1011.7hPa NE 5.0mph /  8km/h 9.0mph /  14.5km/h 56% 0.00in /  0mm 744 W/m2
13:20 38.5 °F /  3.6 °C 24.1 °F /  -4.4 °C 29.88in /  1011.7hPa NNE 6.0mph /  9.7km/h 6.0mph /  9.7km/h 56% 0.00in /  0mm 707 W/m2
13:26 38.6 °F /  3.7 °C 24.2 °F /  -4.3 °C 29.88in /  1011.7hPa ENE 5.0mph /  8km/h 6.0mph /  9.7km/h 56% 0.00in /  0mm 459 W/m2
13:32 38.6 °F /  3.7 °C 24.7 °F /  -4.1 °C 29.87in /  1011.4hPa ENE 4.0mph /  6.4km/h 5.0mph /  8km/h 57% 0.00in /  0mm 809 W/m2
13:38 39.5 °F /  4.2 °C 24.7 °F /  -4.1 °C 29.87in /  1011.4hPa East 4.0mph /  6.4km/h 5.0mph /  8km/h 55% 0.00in /  0mm 747 W/m2
13:44 39.1 °F /  3.9 °C 24.3 °F /  -4.3 °C 29.87in /  1011.4hPa East 4.0mph /  6.4km/h 7.0mph /  11.3km/h 55% 0.00in /  0mm 406 W/m2
13:50 39.0 °F /  3.9 °C 24.6 °F /  -4.1 °C 29.86in /  1011.1hPa North 5.0mph /  8km/h 5.0mph /  8km/h 56% 0.00in /  0mm 417 W/m2
13:56 40.3 °F /  4.6 °C 25.4 °F /  -3.7 °C 29.85in /  1010.7hPa ENE 4.0mph /  6.4km/h 5.0mph /  8km/h 55% 0.00in /  0mm 652 W/m2
14:02 39.9 °F /  4.4 °C 25.0 °F /  -3.9 °C 29.85in /  1010.7hPa ENE 3.0mph /  4.8km/h 4.0mph /  6.4km/h 55% 0.00in /  0mm 476 W/m2
14:10 39.6 °F /  4.2 °C 24.7 °F /  -4.1 °C 29.85in /  1010.7hPa NE 4.0mph /  6.4km/h 9.0mph /  14.5km/h 55% 0.00in /  0mm 455 W/m2
14:18 39.8 °F /  4.3 °C 24.9 °F /  -3.9 °C 29.85in /  1010.7hPa ENE 5.0mph /  8km/h 9.0mph /  14.5km/h 55% 0.00in /  0mm 691 W/m2
14:24 40.3 °F /  4.6 °C 25.0 °F /  -3.9 °C 29.85in /  1010.7hPa ENE 5.0mph /  8km/h 10.0mph /  16.1km/h 54% 0.00in /  0mm 503 W/m2
14:30 39.2 °F /  4 °C 24.4 °F /  -4.2 °C 29.85in /  1010.7hPa NE 5.0mph /  8km/h 5.0mph /  8km/h 55% 0.00in /  0mm 323 W/m2
14:36 39.2 °F /  4 °C 24.4 °F /  -4.2 °C 29.84in /  1010.4hPa ENE 5.0mph /  8km/h 9.0mph /  14.5km/h 55% 0.00in /  0mm 403 W/m2
14:42 39.7 °F /  4.3 °C 25.7 °F /  -3.5 °C 29.84in /  1010.4hPa NE 5.0mph /  8km/h 6.0mph /  9.7km/h 57% 0.00in /  0mm 355 W/m2
14:48 40.2 °F /  4.6 °C 24.9 °F /  -3.9 °C 29.84in /  1010.4hPa ENE 4.0mph /  6.4km/h 6.0mph /  9.7km/h 54% 0.00in /  0mm 320 W/m2
14:54 40.1 °F /  4.5 °C 24.8 °F /  -4 °C 29.84in /  1010.4hPa East 4.0mph /  6.4km/h 11.0mph /  17.7km/h 54% 0.00in /  0mm 367 W/m2
15:00 40.0 °F /  4.4 °C 25.1 °F /  -3.8 °C 29.83in /  1010hPa ENE 4.0mph /  6.4km/h 9.0mph /  14.5km/h 55% 0.00in /  0mm 357 W/m2
15:06 39.7 °F /  4.3 °C 24.8 °F /  -4 °C 29.83in /  1010hPa NE 5.0mph /  8km/h 9.0mph /  14.5km/h 55% 0.00in /  0mm 302 W/m2
15:12 39.4 °F /  4.1 °C 24.6 °F /  -4.1 °C 29.83in /  1010hPa ENE 5.0mph /  8km/h 8.0mph /  12.9km/h 55% 0.00in /  0mm 274 W/m2
15:18 39.7 °F /  4.3 °C 25.3 °F /  -3.7 °C 29.82in /  1009.7hPa ENE 5.0mph /  8km/h 8.0mph /  12.9km/h 56% 0.00in /  0mm 290 W/m2
15:24 40.0 °F /  4.4 °C 25.1 °F /  -3.8 °C 29.82in /  1009.7hPa ENE 3.0mph /  4.8km/h 4.0mph /  6.4km/h 55% 0.00in /  0mm 380 W/m2
15:30 40.5 °F /  4.7 °C 25.1 °F /  -3.8 °C 29.82in /  1009.7hPa ENE 4.0mph /  6.4km/h 4.0mph /  6.4km/h 54% 0.00in /  0mm 350 W/m2
15:36 40.5 °F /  4.7 °C 25.1 °F /  -3.8 °C 29.82in /  1009.7hPa NE 4.0mph /  6.4km/h 6.0mph /  9.7km/h 54% 0.00in /  0mm 253 W/m2
15:42 40.4 °F /  4.7 °C 25.1 °F /  -3.8 °C 29.82in /  1009.7hPa East 4.0mph /  6.4km/h 7.0mph /  11.3km/h 54% 0.00in /  0mm 221 W/m2
15:48 40.3 °F /  4.6 °C 25.0 °F /  -3.9 °C 29.82in /  1009.7hPa SE 5.0mph /  8km/h 9.0mph /  14.5km/h 54% 0.00in /  0mm 199 W/m2
15:54 40.1 °F /  4.5 °C 25.2 °F /  -3.8 °C 29.82in /  1009.7hPa ENE 5.0mph /  8km/h 9.0mph /  14.5km/h 55% 0.00in /  0mm 204 W/m2
16:00 40.2 °F /  4.6 °C 25.3 °F /  -3.7 °C 29.82in /  1009.7hPa East 4.0mph /  6.4km/h 4.0mph /  6.4km/h 55% 0.00in /  0mm 183 W/m2
16:10 40.6 °F /  4.8 °C 25.7 °F /  -3.5 °C 29.82in /  1009.7hPa NNE 4.0mph /  6.4km/h 4.0mph /  6.4km/h 55% 0.00in /  0mm 323 W/m2
16:16 40.4 °F /  4.7 °C 25.1 °F /  -3.8 °C 29.81in /  1009.4hPa SE 5.0mph /  8km/h 8.0mph /  12.9km/h 54% 0.00in /  0mm 237 W/m2
16:22 40.8 °F /  4.9 °C 25.9 °F /  -3.4 °C 29.81in /  1009.4hPa ENE 3.0mph /  4.8km/h 8.0mph /  12.9km/h 55% 0.00in /  0mm 295 W/m2
16:28 40.5 °F /  4.7 °C 25.1 °F /  -3.8 °C 29.81in /  1009.4hPa East 4.0mph /  6.4km/h 8.0mph /  12.9km/h 54% 0.00in /  0mm 141 W/m2
16:36 40.1 °F /  4.5 °C 24.8 °F /  -4 °C 29.82in /  1009.7hPa ENE 5.0mph /  8km/h 13.0mph /  20.9km/h 54% 0.00in /  0mm 139 W/m2
16:42 39.9 °F /  4.4 °C 25.0 °F /  -3.9 °C 29.82in /  1009.7hPa ENE 5.0mph /  8km/h 5.0mph /  8km/h 55% 0.00in /  0mm 100 W/m2
16:46 39.9 °F /  4.4 °C 25.5 °F /  -3.6 °C 29.81in /  1009.4hPa East 4.0mph /  6.4km/h 7.0mph /  11.3km/h 56% 0.00in /  0mm 102 W/m2
16:52 39.8 °F /  4.3 °C 24.9 °F /  -3.9 °C 29.81in /  1009.4hPa East 4.0mph /  6.4km/h 7.0mph /  11.3km/h 55% 0.00in /  0mm 91 W/m2
16:58 39.7 °F /  4.3 °C 25.3 °F /  -3.7 °C 29.82in /  1009.7hPa SSE 5.0mph /  8km/h 7.0mph /  11.3km/h 56% 0.00in /  0mm 105 W/m2
17:04 39.6 °F /  4.2 °C 25.2 °F /  -3.8 °C 29.82in /  1009.7hPa East 4.0mph /  6.4km/h 8.0mph /  12.9km/h 56% 0.00in /  0mm 88 W/m2
17:10 39.4 °F /  4.1 °C 25.0 °F /  -3.9 °C 29.82in /  1009.7hPa ENE 5.0mph /  8km/h 5.0mph /  8km/h 56% 0.00in /  0mm 49 W/m2
17:16 39.2 °F /  4 °C 25.2 °F /  -3.8 °C 29.82in /  1009.7hPa East 4.0mph /  6.4km/h 5.0mph /  8km/h 57% 0.00in /  0mm 28 W/m2
17:22 39.0 °F /  3.9 °C 25.5 °F /  -3.6 °C 29.81in /  1009.4hPa ENE 3.0mph /  4.8km/h 8.0mph /  12.9km/h 58% 0.00in /  0mm 25 W/m2
17:28 38.8 °F /  3.8 °C 25.3 °F /  -3.7 °C 29.81in /  1009.4hPa ENE 4.0mph /  6.4km/h 8.0mph /  12.9km/h 58% 0.00in /  0mm 16 W/m2
17:34 38.7 °F /  3.7 °C 25.2 °F /  -3.8 °C 29.81in /  1009.4hPa ENE 4.0mph /  6.4km/h 4.0mph /  6.4km/h 58% 0.00in /  0mm 12 W/m2
17:40 38.5 °F /  3.6 °C 25.0 °F /  -3.9 °C 29.81in /  1009.4hPa East 4.0mph /  6.4km/h 6.0mph /  9.7km/h 58% 0.00in /  0mm 16 W/m2
17:46 38.4 °F /  3.6 °C 25.3 °F /  -3.7 °C 29.81in /  1009.4hPa ENE 4.0mph /  6.4km/h 6.0mph /  9.7km/h 59% 0.00in /  0mm 12 W/m2
17:52 38.4 °F /  3.6 °C 25.3 °F /  -3.7 °C 29.81in /  1009.4hPa ENE 4.0mph /  6.4km/h 4.0mph /  6.4km/h 59% 0.00in /  0mm 5 W/m2
17:58 38.2 °F /  3.4 °C 25.5 °F /  -3.6 °C 29.81in /  1009.4hPa ENE 4.0mph /  6.4km/h 8.0mph /  12.9km/h 60% 0.00in /  0mm 0 W/m2
18:04 38.1 °F /  3.4 °C 25.4 °F /  -3.7 °C 29.80in /  1009hPa East 4.0mph /  6.4km/h 5.0mph /  8km/h 60% 0.00in /  0mm 0 W/m2
18:10 38.1 °F /  3.4 °C 25.8 °F /  -3.4 °C 29.81in /  1009.4hPa ENE 5.0mph /  8km/h 5.0mph /  8km/h 61% 0.00in /  0mm 0 W/m2
18:16 38.0 °F /  3.3 °C 26.1 °F /  -3.3 °C 29.81in /  1009.4hPa East 4.0mph /  6.4km/h 5.0mph /  8km/h 62% 0.00in /  0mm 0 W/m2
18:22 37.9 °F /  3.3 °C 26.0 °F /  -3.3 °C 29.81in /  1009.4hPa ENE 3.0mph /  4.8km/h 3.0mph /  4.8km/h 62% 0.00in /  0mm 0 W/m2
18:28 37.9 °F /  3.3 °C 26.0 °F /  -3.3 °C 29.81in /  1009.4hPa ESE 3.0mph /  4.8km/h 5.0mph /  8km/h 62% 0.00in /  0mm 0 W/m2
18:34 37.9 °F /  3.3 °C 26.0 °F /  -3.3 °C 29.81in /  1009.4hPa ESE 2.0mph /  3.2km/h 5.0mph /  8km/h 62% 0.00in /  0mm 0 W/m2
18:40 37.9 °F /  3.3 °C 26.0 °F /  -3.3 °C 29.81in /  1009.4hPa East 3.0mph /  4.8km/h 3.0mph /  4.8km/h 62% 0.00in /  0mm 0 W/m2
18:46 37.9 °F /  3.3 °C 26.0 °F /  -3.3 °C 29.80in /  1009hPa East 4.0mph /  6.4km/h 4.0mph /  6.4km/h 62% 0.00in /  0mm 0 W/m2
18:52 37.8 °F /  3.2 °C 26.3 °F /  -3.2 °C 29.81in /  1009.4hPa ESE 3.0mph /  4.8km/h 3.0mph /  4.8km/h 63% 0.00in /  0mm 0 W/m2
18:58 37.9 °F /  3.3 °C 26.4 °F /  -3.1 °C 29.81in /  1009.4hPa ESE 3.0mph /  4.8km/h 3.0mph /  4.8km/h 63% 0.00in /  0mm 0 W/m2
19:00 37.9 °F /  3.3 °C 26.0 °F /  -3.3 °C 29.81in /  1009.4hPa ENE 3.0mph /  4.8km/h 3.0mph /  4.8km/h 62% 0.00in /  0mm 0 W/m2
19:06 37.9 °F /  3.3 °C 26.4 °F /  -3.1 °C 29.81in /  1009.4hPa SE 3.0mph /  4.8km/h 3.0mph /  4.8km/h 63% 0.00in /  0mm 0 W/m2
19:12 37.9 °F /  3.3 °C 26.0 °F /  -3.3 °C 29.81in /  1009.4hPa NE 2.0mph /  3.2km/h 3.0mph /  4.8km/h 62% 0.00in /  0mm 0 W/m2
19:18 37.9 °F /  3.3 °C 26.0 °F /  -3.3 °C 29.81in /  1009.4hPa East 3.0mph /  4.8km/h 5.0mph /  8km/h 62% 0.00in /  0mm 0 W/m2
19:24 38.0 °F /  3.3 °C 26.1 °F /  -3.3 °C 29.81in /  1009.4hPa East 4.0mph /  6.4km/h 5.0mph /  8km/h 62% 0.00in /  0mm 0 W/m2
19:30 38.0 °F /  3.3 °C 26.1 °F /  -3.3 °C 29.81in /  1009.4hPa ENE 3.0mph /  4.8km/h 3.0mph /  4.8km/h 62% 0.00in /  0mm 0 W/m2
19:36 37.9 °F /  3.3 °C 26.0 °F /  -3.3 °C 29.81in /  1009.4hPa ENE 2.0mph /  3.2km/h 5.0mph /  8km/h 62% 0.00in /  0mm 0 W/m2
19:42 37.9 °F /  3.3 °C 26.4 °F /  -3.1 °C 29.81in /  1009.4hPa ENE 2.0mph /  3.2km/h 3.0mph /  4.8km/h 63% 0.00in /  0mm 0 W/m2
19:48 37.9 °F /  3.3 °C 26.4 °F /  -3.1 °C 29.81in /  1009.4hPa ESE 2.0mph /  3.2km/h 7.0mph /  11.3km/h 63% 0.00in /  0mm 0 W/m2
19:54 37.9 °F /  3.3 °C 26.4 °F /  -3.1 °C 29.81in /  1009.4hPa East 2.0mph /  3.2km/h 3.0mph /  4.8km/h 63% 0.00in /  0mm 0 W/m2
20:00 37.8 °F /  3.2 °C 26.3 °F /  -3.2 °C 29.80in /  1009hPa East 2.0mph /  3.2km/h 2.0mph /  3.2km/h 63% 0.00in /  0mm 0 W/m2
20:06 37.7 °F /  3.2 °C 26.6 °F /  -3 °C 29.80in /  1009hPa East 2.0mph /  3.2km/h 3.0mph /  4.8km/h 64% 0.00in /  0mm 0 W/m2
20:12 37.7 °F /  3.2 °C 26.2 °F /  -3.2 °C 29.80in /  1009hPa East 2.0mph /  3.2km/h 3.0mph /  4.8km/h 63% 0.00in /  0mm 0 W/m2
20:18 37.6 °F /  3.1 °C 26.5 °F /  -3.1 °C 29.80in /  1009hPa SE 1.0mph /  1.6km/h 3.0mph /  4.8km/h 64% 0.00in /  0mm 0 W/m2
20:24 37.6 °F /  3.1 °C 26.1 °F /  -3.3 °C 29.80in /  1009hPa ENE 2.0mph /  3.2km/h 3.0mph /  4.8km/h 63% 0.00in /  0mm 0 W/m2
20:30 37.6 °F /  3.1 °C 26.5 °F /  -3.1 °C 29.81in /  1009.4hPa East 2.0mph /  3.2km/h 2.0mph /  3.2km/h 64% 0.00in /  0mm 0 W/m2
20:36 37.6 °F /  3.1 °C 26.5 °F /  -3.1 °C 29.81in /  1009.4hPa SE 1.0mph /  1.6km/h 4.0mph /  6.4km/h 64% 0.00in /  0mm 0 W/m2
20:42 37.6 °F /  3.1 °C 26.5 °F /  -3.1 °C 29.82in /  1009.7hPa SE 1.0mph /  1.6km/h 4.0mph /  6.4km/h 64% 0.00in /  0mm 0 W/m2
20:48 37.5 °F /  3.1 °C 26.4 °F /  -3.1 °C 29.82in /  1009.7hPa SE 1.0mph /  1.6km/h 4.0mph /  6.4km/h 64% 0.00in /  0mm 0 W/m2
20:54 37.3 °F /  2.9 °C 27.0 °F /  -2.8 °C 29.83in /  1010hPa SSE 2.0mph /  3.2km/h 4.0mph /  6.4km/h 66% 0.00in /  0mm 0 W/m2
21:00 37.1 °F /  2.8 °C 27.2 °F /  -2.7 °C 29.84in /  1010.4hPa ESE 2.0mph /  3.2km/h 5.0mph /  8km/h 67% 0.00in /  0mm 0 W/m2
21:06 37.3 °F /  2.9 °C 27.7 °F /  -2.4 °C 29.84in /  1010.4hPa South 3.0mph /  4.8km/h 5.0mph /  8km/h 68% 0.00in /  0mm 0 W/m2
21:12 37.0 °F /  2.8 °C 28.5 °F /  -1.9 °C 29.84in /  1010.4hPa South 4.0mph /  6.4km/h 4.0mph /  6.4km/h 71% 0.00in /  0mm 0 W/m2
21:18 36.7 °F /  2.6 °C 29.2 °F /  -1.6 °C 29.84in /  1010.4hPa SSW 4.0mph /  6.4km/h 4.0mph /  6.4km/h 74% 0.00in /  0mm 0 W/m2
21:24 36.6 °F /  2.6 °C 30.1 °F /  -1.1 °C 29.85in /  1010.7hPa South 3.0mph /  4.8km/h 4.0mph /  6.4km/h 77% 0.00in /  0mm 0 W/m2
21:30 36.5 °F /  2.5 °C 30.6 °F /  -0.8 °C 29.85in /  1010.7hPa WSW 2.0mph /  3.2km/h 3.0mph /  4.8km/h 79% 0.00in /  0mm 0 W/m2
21:36 36.3 °F /  2.4 °C 31.0 °F /  -0.6 °C 29.85in /  1010.7hPa SSW 3.0mph /  4.8km/h 5.0mph /  8km/h 81% 0.00in /  0mm 0 W/m2
21:42 36.2 °F /  2.3 °C 31.2 °F /  -0.4 °C 29.85in /  1010.7hPa SSW 3.0mph /  4.8km/h 4.0mph /  6.4km/h 82% 0.06in /  1.52mm 0 W/m2
21:48 36.0 °F /  2.2 °C 31.3 °F /  -0.4 °C 29.85in /  1010.7hPa SSW 2.0mph /  3.2km/h 4.0mph /  6.4km/h 83% 0.06in /  1.52mm 0 W/m2
21:54 35.8 °F /  2.1 °C 31.4 °F /  -0.3 °C 29.85in /  1010.7hPa South 3.0mph /  4.8km/h 6.0mph /  9.7km/h 84% 0.05in /  1.27mm 0 W/m2
22:00 35.6 °F /  2 °C 31.5 °F /  -0.3 °C 29.85in /  1010.7hPa South 3.0mph /  4.8km/h 6.0mph /  9.7km/h 85% 0.11in /  2.79mm 0 W/m2
22:06 35.4 °F /  1.9 °C 31.3 °F /  -0.4 °C 29.85in /  1010.7hPa South 4.0mph /  6.4km/h 6.0mph /  9.7km/h 85% 0.08in /  2.03mm 0 W/m2
22:12 35.1 °F /  1.7 °C 31.3 °F /  -0.4 °C 29.85in /  1010.7hPa South 4.0mph /  6.4km/h 4.0mph /  6.4km/h 86% 0.11in /  2.79mm 0 W/m2
22:18 34.9 °F /  1.6 °C 31.4 °F /  -0.3 °C 29.85in /  1010.7hPa South 3.0mph /  4.8km/h 5.0mph /  8km/h 87% 0.07in /  1.78mm 0 W/m2
22:24 34.7 °F /  1.5 °C 31.2 °F /  -0.4 °C 29.84in /  1010.4hPa South 2.0mph /  3.2km/h 3.0mph /  4.8km/h 87% 0.04in /  1.02mm 0 W/m2
22:30 34.6 °F /  1.4 °C 31.1 °F /  -0.5 °C 29.84in /  1010.4hPa South 1.0mph /  1.6km/h 3.0mph /  4.8km/h 87% 0.00in /  0mm 0 W/m2
22:36 34.4 °F /  1.3 °C 31.2 °F /  -0.4 °C 29.84in /  1010.4hPa South 1.0mph /  1.6km/h 3.0mph /  4.8km/h 88% 0.00in /  0mm 0 W/m2
22:42 34.4 °F /  1.3 °C 31.2 °F /  -0.4 °C 29.85in /  1010.7hPa South 1.0mph /  1.6km/h 1.0mph /  1.6km/h 88% 0.00in /  0mm 0 W/m2
22:48 34.3 °F /  1.3 °C 31.1 °F /  -0.5 °C 29.84in /  1010.4hPa Calm   1.0mph /  1.6km/h 88% 0.00in /  0mm 0 W/m2
22:54 34.1 °F /  1.2 °C 31.2 °F /  -0.4 °C 29.84in /  1010.4hPa Calm   1.0mph /  1.6km/h 89% 0.05in /  1.27mm 0 W/m2
23:00 33.8 °F /  1 °C 30.9 °F /  -0.6 °C 29.84in /  1010.4hPa Calm     89% 0.05in /  1.27mm 0 W/m2
23:06 33.4 °F /  0.8 °C 30.5 °F /  -0.8 °C 29.84in /  1010.4hPa East 1.0mph /  1.6km/h 3.0mph /  4.8km/h 89% 0.04in /  1.02mm 0 W/m2
23:12 33.0 °F /  0.6 °C 30.1 °F /  -1.1 °C 29.83in /  1010hPa East 1.0mph /  1.6km/h 1.0mph /  1.6km/h 89% 0.00in /  0mm 0 W/m2
23:18 32.8 °F /  0.4 °C 29.9 °F /  -1.2 °C 29.83in /  1010hPa Calm   2.0mph /  3.2km/h 89% 0.00in /  0mm 0 W/m2
23:24 32.7 °F /  0.4 °C 30.1 °F /  -1.1 °C 29.83in /  1010hPa East 1.0mph /  1.6km/h 2.0mph /  3.2km/h 90% 0.00in /  0mm 0 W/m2
23:30 32.6 °F /  0.3 °C 30.0 °F /  -1.1 °C 29.83in /  1010hPa East 1.0mph /  1.6km/h 1.0mph /  1.6km/h 90% 0.00in /  0mm 0 W/m2
23:36 32.5 °F /  0.3 °C 29.9 °F /  -1.2 °C 29.83in /  1010hPa East 1.0mph /  1.6km/h 2.0mph /  3.2km/h 90% 0.00in /  0mm 0 W/m2
23:42 32.5 °F /  0.3 °C 29.9 °F /  -1.2 °C 29.83in /  1010hPa East 1.0mph /  1.6km/h 1.0mph /  1.6km/h 90% 0.00in /  0mm 0 W/m2
23:48 32.4 °F /  0.2 °C 30.1 °F /  -1.1 °C 29.83in /  1010hPa Calm   1.0mph /  1.6km/h 91% 0.00in /  0mm 0 W/m2
23:54 32.4 °F /  0.2 °C 30.1 °F /  -1.1 °C 29.83in /  1010hPa East 1.0mph /  1.6km/h 2.0mph /  3.2km/h 91% 0.00in /  0mm 0 W/m2
Country Meadow, Clay, NY, USA
Compliments of Weather Underground - 2 mb